TEI weather

Tezu Airport
Tezu, Arunachal Pradesh, India

Public forecast

Using degrees Celsius for public forecast. Weather courtesy of forecast.io.

METAR (pilot weather report)

Closest report is Dibrugarh Airport, 65.4 nm (121.2 km) WSW. Retrieved 2019/01/20 02:00 UTC (30 minutes ago):

VEMN 200200Z 00000KT 3000 BR FEW020 SCT100 11/10 Q1018 NOSIG

TAF (pilot weather forecast)

Forecast is more than 12 hours old.

Closest forecast is Jorhat Airport, 127.2 nm (235.6 km) SW. Retrieved 2019/01/19 12:30 UTC (14 hours ago):

TAF VEJT 190930Z 1912/2000 VRB02KT 5000 BR SKC BECMG 1916/1918 3000 BR BECMG 1920/1922 1500 BR BECMG 1923/2000 0800 FG